sensor_id;sensor_type;location;lat;lon;timestamp;P1;durP1;ratioP1;P2;durP2;ratioP2
10399;SDS011;10031;51.180;17.168;2022-12-18T00:02:05;50.43;;;17.87;;
10399;SDS011;10031;51.180;17.168;2022-12-18T00:04:32;56.10;;;19.13;;
10399;SDS011;10031;51.180;17.168;2022-12-18T00:07:01;44.20;;;16.83;;
10399;SDS011;10031;51.180;17.168;2022-12-18T00:09:28;40.47;;;14.80;;
10399;SDS011;10031;51.180;17.168;2022-12-18T00:11:54;43.73;;;16.17;;
10399;SDS011;10031;51.180;17.168;2022-12-18T00:14:20;39.90;;;15.33;;
10399;SDS011;10031;51.180;17.168;2022-12-18T00:16:47;34.53;;;13.13;;
10399;SDS011;10031;51.180;17.168;2022-12-18T00:19:13;29.43;;;10.53;;
10399;SDS011;10031;51.180;17.168;2022-12-18T00:21:41;44.80;;;16.60;;
10399;SDS011;10031;51.180;17.168;2022-12-18T00:24:08;44.10;;;15.73;;
10399;SDS011;10031;51.180;17.168;2022-12-18T00:26:39;51.53;;;17.00;;
10399;SDS011;10031;51.180;17.168;2022-12-18T00:29:10;52.93;;;19.73;;
10399;SDS011;10031;51.180;17.168;2022-12-18T00:31:38;42.87;;;16.63;;
10399;SDS011;10031;51.180;17.168;2022-12-18T00:34:05;43.67;;;14.97;;
10399;SDS011;10031;51.180;17.168;2022-12-18T00:36:34;16.73;;;8.10;;
10399;SDS011;10031;51.180;17.168;2022-12-18T00:39:02;44.40;;;14.40;;
10399;SDS011;10031;51.180;17.168;2022-12-18T00:41:29;48.73;;;17.53;;
10399;SDS011;10031;51.180;17.168;2022-12-18T00:44:14;31.60;;;11.40;;
10399;SDS011;10031;51.180;17.168;2022-12-18T00:46:42;46.73;;;15.93;;
10399;SDS011;10031;51.180;17.168;2022-12-18T00:49:09;51.27;;;17.20;;
10399;SDS011;10031;51.180;17.168;2022-12-18T00:51:35;54.70;;;18.00;;
10399;SDS011;10031;51.180;17.168;2022-12-18T00:54:02;45.53;;;15.57;;
10399;SDS011;10031;51.180;17.168;2022-12-18T00:56:29;46.33;;;17.47;;
10399;SDS011;10031;51.180;17.168;2022-12-18T00:58:55;36.10;;;12.17;;
10399;SDS011;10031;51.180;17.168;2022-12-18T01:01:21;35.07;;;13.00;;
10399;SDS011;10031;51.180;17.168;2022-12-18T01:03:47;56.37;;;17.50;;
10399;SDS011;10031;51.180;17.168;2022-12-18T01:06:14;46.63;;;16.17;;
10399;SDS011;10031;51.180;17.168;2022-12-18T01:08:41;49.73;;;17.03;;
10399;SDS011;10031;51.180;17.168;2022-12-18T01:11:08;53.57;;;18.33;;
10399;SDS011;10031;51.180;17.168;2022-12-18T01:13:37;51.37;;;17.77;;
10399;SDS011;10031;51.180;17.168;2022-12-18T01:16:03;63.77;;;18.57;;
10399;SDS011;10031;51.180;17.168;2022-12-18T01:18:30;58.63;;;18.50;;
10399;SDS011;10031;51.180;17.168;2022-12-18T01:20:56;59.30;;;18.30;;
10399;SDS011;10031;51.180;17.168;2022-12-18T01:23:22;51.77;;;17.43;;
10399;SDS011;10031;51.180;17.168;2022-12-18T01:25:48;55.03;;;17.13;;
10399;SDS011;10031;51.180;17.168;2022-12-18T01:28:15;42.77;;;17.23;;
10399;SDS011;10031;51.180;17.168;2022-12-18T01:30:41;56.80;;;19.00;;
10399;SDS011;10031;51.180;17.168;2022-12-18T01:33:07;50.77;;;17.63;;
10399;SDS011;10031;51.180;17.168;2022-12-18T01:35:33;54.97;;;19.43;;
10399;SDS011;10031;51.180;17.168;2022-12-18T01:38:06;55.80;;;18.57;;
10399;SDS011;10031;51.180;17.168;2022-12-18T01:40:32;43.83;;;15.03;;
10399;SDS011;10031;51.180;17.168;2022-12-18T01:42:58;44.87;;;15.77;;
10399;SDS011;10031;51.180;17.168;2022-12-18T01:45:26;43.63;;;15.33;;
10399;SDS011;10031;51.180;17.168;2022-12-18T01:47:54;47.53;;;17.17;;
10399;SDS011;10031;51.180;17.168;2022-12-18T01:50:25;50.00;;;17.53;;
10399;SDS011;10031;51.180;17.168;2022-12-18T01:52:57;52.53;;;16.20;;
10399;SDS011;10031;51.180;17.168;2022-12-18T01:55:54;46.73;;;15.77;;
10399;SDS011;10031;51.180;17.168;2022-12-18T01:58:35;48.00;;;16.87;;
10399;SDS011;10031;51.180;17.168;2022-12-18T02:01:31;62.77;;;18.00;;
10399;SDS011;10031;51.180;17.168;2022-12-18T02:04:21;45.67;;;18.00;;
10399;SDS011;10031;51.180;17.168;2022-12-18T02:06:50;60.03;;;19.10;;
10399;SDS011;10031;51.180;17.168;2022-12-18T02:12:25;49.97;;;18.00;;
10399;SDS011;10031;51.180;17.168;2022-12-18T02:20:36;64.60;;;19.77;;
10399;SDS011;10031;51.180;17.168;2022-12-18T02:23:12;62.47;;;20.03;;
10399;SDS011;10031;51.180;17.168;2022-12-18T02:28:31;59.27;;;20.00;;
10399;SDS011;10031;51.180;17.168;2022-12-18T02:31:05;59.97;;;21.20;;
10399;SDS011;10031;51.180;17.168;2022-12-18T02:33:32;68.63;;;19.80;;
10399;SDS011;10031;51.180;17.168;2022-12-18T02:36:01;68.93;;;19.80;;
10399;SDS011;10031;51.180;17.168;2022-12-18T02:38:27;60.33;;;20.87;;
10399;SDS011;10031;51.180;17.168;2022-12-18T02:40:56;53.57;;;19.07;;
10399;SDS011;10031;51.180;17.168;2022-12-18T02:43:22;59.43;;;19.47;;
10399;SDS011;10031;51.180;17.168;2022-12-18T02:46:24;52.20;;;18.33;;
10399;SDS011;10031;51.180;17.168;2022-12-18T02:52:01;51.87;;;19.23;;
10399;SDS011;10031;51.180;17.168;2022-12-18T02:54:47;55.60;;;17.80;;
10399;SDS011;10031;51.180;17.168;2022-12-18T03:02:47;49.87;;;17.90;;
10399;SDS011;10031;51.180;17.168;2022-12-18T03:05:22;52.50;;;17.53;;
10399;SDS011;10031;51.180;17.168;2022-12-18T03:08:05;57.83;;;18.87;;
10399;SDS011;10031;51.180;17.168;2022-12-18T03:10:34;43.67;;;16.53;;
10399;SDS011;10031;51.180;17.168;2022-12-18T03:15:32;47.37;;;15.50;;
10399;SDS011;10031;51.180;17.168;2022-12-18T03:18:07;44.87;;;16.03;;
10399;SDS011;10031;51.180;17.168;2022-12-18T03:20:34;48.03;;;17.00;;
10399;SDS011;10031;51.180;17.168;2022-12-18T03:23:04;50.13;;;17.93;;
10399;SDS011;10031;51.180;17.168;2022-12-18T03:25:39;48.83;;;17.07;;
10399;SDS011;10031;51.180;17.168;2022-12-18T03:28:08;42.23;;;15.60;;
10399;SDS011;10031;51.180;17.168;2022-12-18T03:30:38;42.27;;;16.13;;
10399;SDS011;10031;51.180;17.168;2022-12-18T03:35:40;40.10;;;15.33;;
10399;SDS011;10031;51.180;17.168;2022-12-18T03:38:08;39.63;;;13.50;;
10399;SDS011;10031;51.180;17.168;2022-12-18T03:40:41;43.87;;;15.17;;
10399;SDS011;10031;51.180;17.168;2022-12-18T03:48:43;36.40;;;13.83;;
10399;SDS011;10031;51.180;17.168;2022-12-18T03:51:18;37.07;;;13.57;;
10399;SDS011;10031;51.180;17.168;2022-12-18T03:53:53;47.60;;;15.50;;
10399;SDS011;10031;51.180;17.168;2022-12-18T03:56:25;43.77;;;15.63;;
10399;SDS011;10031;51.180;17.168;2022-12-18T03:58:54;42.23;;;14.47;;
10399;SDS011;10031;51.180;17.168;2022-12-18T04:01:25;39.50;;;13.37;;
10399;SDS011;10031;51.180;17.168;2022-12-18T04:04:00;35.77;;;14.43;;
10399;SDS011;10031;51.180;17.168;2022-12-18T04:06:27;36.60;;;12.93;;
10399;SDS011;10031;51.180;17.168;2022-12-18T04:08:54;39.13;;;14.23;;
10399;SDS011;10031;51.180;17.168;2022-12-18T04:11:21;36.17;;;14.03;;
10399;SDS011;10031;51.180;17.168;2022-12-18T04:13:47;33.57;;;13.80;;
10399;SDS011;10031;51.180;17.168;2022-12-18T04:16:13;35.27;;;13.80;;
10399;SDS011;10031;51.180;17.168;2022-12-18T04:18:39;32.97;;;13.97;;
10399;SDS011;10031;51.180;17.168;2022-12-18T04:21:05;32.60;;;14.33;;
10399;SDS011;10031;51.180;17.168;2022-12-18T04:23:31;40.37;;;14.40;;
10399;SDS011;10031;51.180;17.168;2022-12-18T04:25:57;40.30;;;15.23;;
10399;SDS011;10031;51.180;17.168;2022-12-18T04:28:24;36.40;;;14.97;;
10399;SDS011;10031;51.180;17.168;2022-12-18T04:30:50;34.63;;;14.30;;
10399;SDS011;10031;51.180;17.168;2022-12-18T04:33:16;32.87;;;15.10;;
10399;SDS011;10031;51.180;17.168;2022-12-18T04:35:42;42.17;;;16.37;;
10399;SDS011;10031;51.180;17.168;2022-12-18T04:38:08;33.53;;;13.47;;
10399;SDS011;10031;51.180;17.168;2022-12-18T04:40:37;40.90;;;15.07;;
10399;SDS011;10031;51.180;17.168;2022-12-18T04:43:04;44.43;;;15.73;;
10399;SDS011;10031;51.180;17.168;2022-12-18T04:45:30;36.17;;;14.40;;
10399;SDS011;10031;51.180;17.168;2022-12-18T04:47:57;35.60;;;14.53;;
10399;SDS011;10031;51.180;17.168;2022-12-18T04:50:23;38.87;;;16.17;;
10399;SDS011;10031;51.180;17.168;2022-12-18T04:52:49;38.47;;;15.70;;
10399;SDS011;10031;51.180;17.168;2022-12-18T04:55:16;39.23;;;15.87;;
10399;SDS011;10031;51.180;17.168;2022-12-18T04:57:42;47.60;;;16.47;;
10399;SDS011;10031;51.180;17.168;2022-12-18T05:00:09;38.93;;;15.63;;
10399;SDS011;10031;51.180;17.168;2022-12-18T05:02:35;50.20;;;17.90;;
10399;SDS011;10031;51.180;17.168;2022-12-18T05:05:02;43.00;;;15.83;;
10399;SDS011;10031;51.180;17.168;2022-12-18T05:07:28;40.07;;;15.70;;
10399;SDS011;10031;51.180;17.168;2022-12-18T05:09:55;47.27;;;17.23;;
10399;SDS011;10031;51.180;17.168;2022-12-18T05:12:21;35.97;;;14.63;;
10399;SDS011;10031;51.180;17.168;2022-12-18T05:14:47;36.83;;;14.40;;
10399;SDS011;10031;51.180;17.168;2022-12-18T05:17:13;35.07;;;14.33;;
10399;SDS011;10031;51.180;17.168;2022-12-18T05:19:39;31.70;;;13.40;;
10399;SDS011;10031;51.180;17.168;2022-12-18T05:22:05;42.97;;;16.07;;
10399;SDS011;10031;51.180;17.168;2022-12-18T05:24:38;40.23;;;15.87;;
10399;SDS011;10031;51.180;17.168;2022-12-18T05:27:04;40.57;;;15.70;;
10399;SDS011;10031;51.180;17.168;2022-12-18T05:29:30;34.10;;;13.63;;
10399;SDS011;10031;51.180;17.168;2022-12-18T05:31:56;39.57;;;15.73;;
10399;SDS011;10031;51.180;17.168;2022-12-18T05:34:23;31.87;;;13.53;;
10399;SDS011;10031;51.180;17.168;2022-12-18T05:36:50;40.77;;;14.50;;
10399;SDS011;10031;51.180;17.168;2022-12-18T05:39:16;33.90;;;14.07;;
10399;SDS011;10031;51.180;17.168;2022-12-18T05:41:42;43.97;;;15.77;;
10399;SDS011;10031;51.180;17.168;2022-12-18T05:44:08;42.33;;;15.70;;
10399;SDS011;10031;51.180;17.168;2022-12-18T05:46:34;36.57;;;15.93;;
10399;SDS011;10031;51.180;17.168;2022-12-18T05:49:02;35.80;;;15.10;;
10399;SDS011;10031;51.180;17.168;2022-12-18T05:51:28;35.40;;;14.50;;
10399;SDS011;10031;51.180;17.168;2022-12-18T05:53:54;35.67;;;15.27;;
10399;SDS011;10031;51.180;17.168;2022-12-18T05:56:21;41.90;;;16.60;;
10399;SDS011;10031;51.180;17.168;2022-12-18T05:58:50;39.63;;;15.97;;
10399;SDS011;10031;51.180;17.168;2022-12-18T06:01:19;41.27;;;15.97;;
10399;SDS011;10031;51.180;17.168;2022-12-18T06:03:47;37.70;;;15.13;;
10399;SDS011;10031;51.180;17.168;2022-12-18T06:06:24;33.87;;;14.43;;
10399;SDS011;10031;51.180;17.168;2022-12-18T06:08:53;38.00;;;13.53;;
10399;SDS011;10031;51.180;17.168;2022-12-18T06:11:20;37.53;;;15.67;;
10399;SDS011;10031;51.180;17.168;2022-12-18T06:13:54;42.70;;;16.13;;
10399;SDS011;10031;51.180;17.168;2022-12-18T06:16:21;38.80;;;14.73;;
10399;SDS011;10031;51.180;17.168;2022-12-18T06:18:47;36.10;;;13.97;;
10399;SDS011;10031;51.180;17.168;2022-12-18T06:23:42;45.00;;;15.33;;
10399;SDS011;10031;51.180;17.168;2022-12-18T06:26:10;33.33;;;13.10;;
10399;SDS011;10031;51.180;17.168;2022-12-18T06:28:37;36.33;;;14.27;;
10399;SDS011;10031;51.180;17.168;2022-12-18T06:31:03;36.20;;;14.73;;
10399;SDS011;10031;51.180;17.168;2022-12-18T06:33:30;41.50;;;14.73;;
10399;SDS011;10031;51.180;17.168;2022-12-18T06:36:01;35.10;;;14.13;;
10399;SDS011;10031;51.180;17.168;2022-12-18T06:38:28;39.60;;;15.93;;
10399;SDS011;10031;51.180;17.168;2022-12-18T06:40:55;36.70;;;15.07;;
10399;SDS011;10031;51.180;17.168;2022-12-18T06:43:22;42.77;;;16.40;;
10399;SDS011;10031;51.180;17.168;2022-12-18T06:45:48;36.47;;;14.80;;
10399;SDS011;10031;51.180;17.168;2022-12-18T06:48:18;36.00;;;15.77;;
10399;SDS011;10031;51.180;17.168;2022-12-18T06:50:45;35.07;;;13.03;;
10399;SDS011;10031;51.180;17.168;2022-12-18T06:53:11;35.13;;;15.30;;
10399;SDS011;10031;51.180;17.168;2022-12-18T06:55:37;42.27;;;17.07;;
10399;SDS011;10031;51.180;17.168;2022-12-18T06:58:07;40.03;;;16.10;;
10399;SDS011;10031;51.180;17.168;2022-12-18T07:00:39;42.00;;;16.47;;
10399;SDS011;10031;51.180;17.168;2022-12-18T07:03:05;40.60;;;16.73;;
10399;SDS011;10031;51.180;17.168;2022-12-18T07:05:31;47.90;;;18.47;;
10399;SDS011;10031;51.180;17.168;2022-12-18T07:07:59;44.93;;;17.70;;
10399;SDS011;10031;51.180;17.168;2022-12-18T07:10:25;42.07;;;16.10;;
10399;SDS011;10031;51.180;17.168;2022-12-18T07:12:52;40.47;;;16.10;;
10399;SDS011;10031;51.180;17.168;2022-12-18T07:15:19;52.17;;;18.60;;
10399;SDS011;10031;51.180;17.168;2022-12-18T07:17:45;47.43;;;17.40;;
10399;SDS011;10031;51.180;17.168;2022-12-18T07:20:11;49.30;;;19.80;;
10399;SDS011;10031;51.180;17.168;2022-12-18T07:22:37;47.40;;;18.13;;
10399;SDS011;10031;51.180;17.168;2022-12-18T07:25:04;47.00;;;18.53;;
10399;SDS011;10031;51.180;17.168;2022-12-18T07:27:35;47.33;;;18.23;;
10399;SDS011;10031;51.180;17.168;2022-12-18T07:30:01;49.93;;;18.50;;
10399;SDS011;10031;51.180;17.168;2022-12-18T07:32:28;48.43;;;19.10;;
10399;SDS011;10031;51.180;17.168;2022-12-18T07:34:54;44.30;;;19.17;;
10399;SDS011;10031;51.180;17.168;2022-12-18T07:37:20;45.40;;;19.10;;
10399;SDS011;10031;51.180;17.168;2022-12-18T07:39:49;49.67;;;19.93;;
10399;SDS011;10031;51.180;17.168;2022-12-18T07:42:15;45.47;;;19.40;;
10399;SDS011;10031;51.180;17.168;2022-12-18T07:45:00;46.07;;;18.93;;
10399;SDS011;10031;51.180;17.168;2022-12-18T07:47:27;52.37;;;20.50;;
10399;SDS011;10031;51.180;17.168;2022-12-18T07:49:53;49.03;;;21.10;;
10399;SDS011;10031;51.180;17.168;2022-12-18T07:52:20;45.83;;;17.73;;
10399;SDS011;10031;51.180;17.168;2022-12-18T07:54:46;55.37;;;21.60;;
10399;SDS011;10031;51.180;17.168;2022-12-18T07:57:15;46.77;;;17.53;;
10399;SDS011;10031;51.180;17.168;2022-12-18T07:59:47;47.27;;;17.83;;
10399;SDS011;10031;51.180;17.168;2022-12-18T08:02:14;51.87;;;20.40;;
10399;SDS011;10031;51.180;17.168;2022-12-18T08:04:40;53.67;;;22.87;;
10399;SDS011;10031;51.180;17.168;2022-12-18T08:07:06;44.97;;;17.93;;
10399;SDS011;10031;51.180;17.168;2022-12-18T08:09:33;61.63;;;22.87;;
10399;SDS011;10031;51.180;17.168;2022-12-18T08:11:59;51.53;;;21.77;;
10399;SDS011;10031;51.180;17.168;2022-12-18T08:14:25;48.07;;;19.60;;
10399;SDS011;10031;51.180;17.168;2022-12-18T08:16:52;61.07;;;22.20;;
10399;SDS011;10031;51.180;17.168;2022-12-18T08:19:18;57.33;;;21.03;;
10399;SDS011;10031;51.180;17.168;2022-12-18T08:21:46;59.27;;;22.63;;
10399;SDS011;10031;51.180;17.168;2022-12-18T08:24:13;54.47;;;22.87;;
10399;SDS011;10031;51.180;17.168;2022-12-18T08:26:42;58.80;;;22.27;;
10399;SDS011;10031;51.180;17.168;2022-12-18T08:29:09;59.37;;;21.70;;
10399;SDS011;10031;51.180;17.168;2022-12-18T08:31:35;50.33;;;19.73;;
10399;SDS011;10031;51.180;17.168;2022-12-18T08:34:03;47.93;;;20.20;;
10399;SDS011;10031;51.180;17.168;2022-12-18T08:36:29;55.33;;;21.77;;
10399;SDS011;10031;51.180;17.168;2022-12-18T08:38:56;52.77;;;22.57;;
10399;SDS011;10031;51.180;17.168;2022-12-18T08:41:22;54.40;;;21.67;;
10399;SDS011;10031;51.180;17.168;2022-12-18T08:43:48;57.13;;;23.33;;
10399;SDS011;10031;51.180;17.168;2022-12-18T08:46:37;55.60;;;20.73;;
10399;SDS011;10031;51.180;17.168;2022-12-18T08:49:05;50.00;;;19.37;;
10399;SDS011;10031;51.180;17.168;2022-12-18T08:51:35;54.90;;;22.87;;
10399;SDS011;10031;51.180;17.168;2022-12-18T08:54:02;54.33;;;21.50;;
10399;SDS011;10031;51.180;17.168;2022-12-18T08:56:36;53.70;;;21.30;;
10399;SDS011;10031;51.180;17.168;2022-12-18T08:59:03;51.03;;;20.10;;
10399;SDS011;10031;51.180;17.168;2022-12-18T09:01:30;53.97;;;19.57;;
10399;SDS011;10031;51.180;17.168;2022-12-18T09:03:56;47.60;;;19.73;;
10399;SDS011;10031;51.180;17.168;2022-12-18T09:06:23;38.67;;;15.50;;
10399;SDS011;10031;51.180;17.168;2022-12-18T09:08:49;39.80;;;16.30;;
10399;SDS011;10031;51.180;17.168;2022-12-18T09:11:20;47.73;;;19.40;;
10399;SDS011;10031;51.180;17.168;2022-12-18T09:13:47;48.97;;;20.17;;
10399;SDS011;10031;51.180;17.168;2022-12-18T09:16:15;47.07;;;19.27;;
10399;SDS011;10031;51.180;17.168;2022-12-18T09:18:41;51.30;;;19.40;;
10399;SDS011;10031;51.180;17.168;2022-12-18T09:21:09;45.60;;;20.10;;
10399;SDS011;10031;51.180;17.168;2022-12-18T09:23:37;40.90;;;17.47;;
10399;SDS011;10031;51.180;17.168;2022-12-18T09:26:07;45.67;;;18.60;;
10399;SDS011;10031;51.180;17.168;2022-12-18T09:28:34;37.60;;;16.83;;
10399;SDS011;10031;51.180;17.168;2022-12-18T09:31:06;43.47;;;17.57;;
10399;SDS011;10031;51.180;17.168;2022-12-18T09:33:37;42.17;;;17.57;;
10399;SDS011;10031;51.180;17.168;2022-12-18T09:36:04;43.23;;;17.27;;
10399;SDS011;10031;51.180;17.168;2022-12-18T09:38:35;38.97;;;15.60;;
10399;SDS011;10031;51.180;17.168;2022-12-18T09:44:36;41.63;;;16.93;;
10399;SDS011;10031;51.180;17.168;2022-12-18T09:50:19;35.80;;;15.93;;
10399;SDS011;10031;51.180;17.168;2022-12-18T09:52:51;47.90;;;19.17;;
10399;SDS011;10031;51.180;17.168;2022-12-18T09:55:36;43.83;;;18.67;;
10399;SDS011;10031;51.180;17.168;2022-12-18T10:00:39;39.27;;;17.50;;
10399;SDS011;10031;51.180;17.168;2022-12-18T10:03:09;41.57;;;16.50;;
10399;SDS011;10031;51.180;17.168;2022-12-18T10:05:52;36.83;;;17.60;;
10399;SDS011;10031;51.180;17.168;2022-12-18T10:10:55;41.40;;;18.40;;
10399;SDS011;10031;51.180;17.168;2022-12-18T10:13:34;47.20;;;17.90;;
10399;SDS011;10031;51.180;17.168;2022-12-18T10:16:15;40.30;;;16.83;;
10399;SDS011;10031;51.180;17.168;2022-12-18T10:21:18;42.93;;;18.60;;
10399;SDS011;10031;51.180;17.168;2022-12-18T10:27:22;33.63;;;15.23;;
10399;SDS011;10031;51.180;17.168;2022-12-18T10:29:52;34.57;;;14.77;;
10399;SDS011;10031;51.180;17.168;2022-12-18T10:32:27;29.07;;;12.20;;
10399;SDS011;10031;51.180;17.168;2022-12-18T10:34:56;37.87;;;17.50;;
10399;SDS011;10031;51.180;17.168;2022-12-18T10:37:30;41.97;;;18.80;;
10399;SDS011;10031;51.180;17.168;2022-12-18T10:40:08;34.03;;;15.80;;
10399;SDS011;10031;51.180;17.168;2022-12-18T10:42:35;34.97;;;14.20;;
10399;SDS011;10031;51.180;17.168;2022-12-18T10:45:15;41.07;;;16.97;;
10399;SDS011;10031;51.180;17.168;2022-12-18T10:47:46;44.37;;;18.43;;
10399;SDS011;10031;51.180;17.168;2022-12-18T10:52:55;42.57;;;18.93;;
10399;SDS011;10031;51.180;17.168;2022-12-18T10:55:34;42.30;;;19.20;;
10399;SDS011;10031;51.180;17.168;2022-12-18T11:01:07;36.83;;;15.63;;
10399;SDS011;10031;51.180;17.168;2022-12-18T11:04:18;44.57;;;18.20;;
10399;SDS011;10031;51.180;17.168;2022-12-18T11:06:25;32.93;;;15.93;;
10399;SDS011;10031;51.180;17.168;2022-12-18T11:11:25;46.30;;;17.37;;
10399;SDS011;10031;51.180;17.168;2022-12-18T11:14:05;40.70;;;17.13;;
10399;SDS011;10031;51.180;17.168;2022-12-18T11:16:47;39.67;;;15.30;;
10399;SDS011;10031;51.180;17.168;2022-12-18T11:21:52;41.80;;;17.73;;
10399;SDS011;10031;51.180;17.168;2022-12-18T11:24:33;38.57;;;16.50;;
10399;SDS011;10031;51.180;17.168;2022-12-18T11:27:05;47.93;;;19.33;;
10399;SDS011;10031;51.180;17.168;2022-12-18T11:29:36;42.97;;;20.63;;
10399;SDS011;10031;51.180;17.168;2022-12-18T11:35:22;40.00;;;16.63;;
10399;SDS011;10031;51.180;17.168;2022-12-18T11:38:02;46.10;;;21.37;;
10399;SDS011;10031;51.180;17.168;2022-12-18T11:43:35;41.67;;;18.87;;
10399;SDS011;10031;51.180;17.168;2022-12-18T11:46:19;50.23;;;20.27;;
10399;SDS011;10031;51.180;17.168;2022-12-18T11:49:12;42.93;;;18.33;;
10399;SDS011;10031;51.180;17.168;2022-12-18T11:51:46;40.43;;;18.27;;
10399;SDS011;10031;51.180;17.168;2022-12-18T11:54:25;44.93;;;17.67;;
10399;SDS011;10031;51.180;17.168;2022-12-18T11:56:56;47.13;;;18.90;;
10399;SDS011;10031;51.180;17.168;2022-12-18T12:05:36;44.60;;;19.53;;
10399;SDS011;10031;51.180;17.168;2022-12-18T12:08:13;46.73;;;20.07;;
10399;SDS011;10031;51.180;17.168;2022-12-18T12:10:56;43.73;;;17.03;;
10399;SDS011;10031;51.180;17.168;2022-12-18T12:15:58;45.57;;;20.07;;
10399;SDS011;10031;51.180;17.168;2022-12-18T12:18:33;51.07;;;21.40;;
10399;SDS011;10031;51.180;17.168;2022-12-18T12:24:10;46.40;;;17.27;;
10399;SDS011;10031;51.180;17.168;2022-12-18T12:27:02;49.47;;;20.90;;
10399;SDS011;10031;51.180;17.168;2022-12-18T12:32:03;40.43;;;15.70;;
10399;SDS011;10031;51.180;17.168;2022-12-18T12:40:13;50.30;;;21.27;;
10399;SDS011;10031;51.180;17.168;2022-12-18T12:42:44;54.23;;;20.63;;
10399;SDS011;10031;51.180;17.168;2022-12-18T12:45:42;55.30;;;20.00;;
10399;SDS011;10031;51.180;17.168;2022-12-18T12:48:14;52.20;;;19.53;;
10399;SDS011;10031;51.180;17.168;2022-12-18T12:51:32;55.37;;;22.03;;
10399;SDS011;10031;51.180;17.168;2022-12-18T12:54:06;50.30;;;21.23;;
10399;SDS011;10031;51.180;17.168;2022-12-18T12:59:13;53.13;;;22.17;;
10399;SDS011;10031;51.180;17.168;2022-12-18T13:10:33;57.90;;;21.07;;
10399;SDS011;10031;51.180;17.168;2022-12-18T13:13:11;51.50;;;20.37;;
10399;SDS011;10031;51.180;17.168;2022-12-18T13:15:44;47.37;;;18.80;;
10399;SDS011;10031;51.180;17.168;2022-12-18T13:18:22;42.43;;;17.23;;
10399;SDS011;10031;51.180;17.168;2022-12-18T13:21:03;45.67;;;18.00;;
10399;SDS011;10031;51.180;17.168;2022-12-18T13:23:35;46.67;;;18.43;;
10399;SDS011;10031;51.180;17.168;2022-12-18T13:36:45;46.33;;;18.73;;
10399;SDS011;10031;51.180;17.168;2022-12-18T13:41:46;49.23;;;20.40;;
10399;SDS011;10031;51.180;17.168;2022-12-18T13:46:52;51.03;;;18.80;;
10399;SDS011;10031;51.180;17.168;2022-12-18T13:49:43;42.50;;;18.40;;
10399;SDS011;10031;51.180;17.168;2022-12-18T13:52:23;37.30;;;16.77;;
10399;SDS011;10031;51.180;17.168;2022-12-18T13:54:56;44.20;;;17.70;;
10399;SDS011;10031;51.180;17.168;2022-12-18T13:57:31;41.30;;;17.73;;
10399;SDS011;10031;51.180;17.168;2022-12-18T14:02:58;43.67;;;18.40;;
10399;SDS011;10031;51.180;17.168;2022-12-18T14:05:27;48.93;;;19.00;;
10399;SDS011;10031;51.180;17.168;2022-12-18T14:07:55;48.17;;;17.73;;
10399;SDS011;10031;51.180;17.168;2022-12-18T14:10:43;47.80;;;17.67;;
10399;SDS011;10031;51.180;17.168;2022-12-18T14:13:17;51.17;;;19.87;;
10399;SDS011;10031;51.180;17.168;2022-12-18T14:15:50;41.73;;;17.73;;
10399;SDS011;10031;51.180;17.168;2022-12-18T14:20:48;45.97;;;19.77;;
10399;SDS011;10031;51.180;17.168;2022-12-18T14:23:27;60.27;;;22.20;;
10399;SDS011;10031;51.180;17.168;2022-12-18T14:25:57;50.27;;;19.43;;
10399;SDS011;10031;51.180;17.168;2022-12-18T14:28:23;57.33;;;20.60;;
10399;SDS011;10031;51.180;17.168;2022-12-18T14:30:52;52.90;;;21.37;;
10399;SDS011;10031;51.180;17.168;2022-12-18T14:33:24;56.47;;;21.50;;
10399;SDS011;10031;51.180;17.168;2022-12-18T14:35:53;60.57;;;23.90;;
10399;SDS011;10031;51.180;17.168;2022-12-18T14:40:46;60.87;;;23.50;;
10399;SDS011;10031;51.180;17.168;2022-12-18T14:43:13;60.17;;;22.67;;
10399;SDS011;10031;51.180;17.168;2022-12-18T14:45:40;65.67;;;24.20;;
10399;SDS011;10031;51.180;17.168;2022-12-18T14:50:42;68.20;;;24.87;;
10399;SDS011;10031;51.180;17.168;2022-12-18T14:56:14;63.83;;;23.83;;
10399;SDS011;10031;51.180;17.168;2022-12-18T14:58:50;65.50;;;22.70;;
10399;SDS011;10031;51.180;17.168;2022-12-18T15:01:31;61.87;;;23.53;;
10399;SDS011;10031;51.180;17.168;2022-12-18T15:04:22;65.40;;;24.87;;
10399;SDS011;10031;51.180;17.168;2022-12-18T15:09:30;63.97;;;23.67;;
10399;SDS011;10031;51.180;17.168;2022-12-18T15:11:59;53.90;;;21.33;;
10399;SDS011;10031;51.180;17.168;2022-12-18T15:17:17;55.43;;;20.40;;
10399;SDS011;10031;51.180;17.168;2022-12-18T15:19:48;62.50;;;23.77;;
10399;SDS011;10031;51.180;17.168;2022-12-18T15:22:30;61.13;;;23.07;;
10399;SDS011;10031;51.180;17.168;2022-12-18T15:25:00;51.80;;;19.70;;
10399;SDS011;10031;51.180;17.168;2022-12-18T15:27:36;60.23;;;21.57;;
10399;SDS011;10031;51.180;17.168;2022-12-18T15:32:43;66.50;;;22.27;;
10399;SDS011;10031;51.180;17.168;2022-12-18T15:35:23;52.87;;;21.03;;
10399;SDS011;10031;51.180;17.168;2022-12-18T15:37:51;47.63;;;22.50;;
10399;SDS011;10031;51.180;17.168;2022-12-18T15:40:19;65.73;;;25.03;;
10399;SDS011;10031;51.180;17.168;2022-12-18T15:42:47;59.43;;;23.73;;
10399;SDS011;10031;51.180;17.168;2022-12-18T15:45:34;58.60;;;19.83;;
10399;SDS011;10031;51.180;17.168;2022-12-18T15:48:00;61.13;;;21.43;;
10399;SDS011;10031;51.180;17.168;2022-12-18T15:50:27;56.60;;;23.07;;
10399;SDS011;10031;51.180;17.168;2022-12-18T15:52:53;59.50;;;23.10;;
10399;SDS011;10031;51.180;17.168;2022-12-18T15:55:24;61.17;;;22.87;;
10399;SDS011;10031;51.180;17.168;2022-12-18T15:58:09;42.60;;;18.40;;
10399;SDS011;10031;51.180;17.168;2022-12-18T16:00:38;54.83;;;18.77;;
10399;SDS011;10031;51.180;17.168;2022-12-18T16:03:08;65.17;;;22.13;;
10399;SDS011;10031;51.180;17.168;2022-12-18T16:05:35;62.03;;;23.03;;
10399;SDS011;10031;51.180;17.168;2022-12-18T16:08:01;58.20;;;20.83;;
10399;SDS011;10031;51.180;17.168;2022-12-18T16:10:29;33.93;;;12.53;;
10399;SDS011;10031;51.180;17.168;2022-12-18T16:12:58;65.47;;;22.83;;
10399;SDS011;10031;51.180;17.168;2022-12-18T16:15:24;19.07;;;7.77;;
10399;SDS011;10031;51.180;17.168;2022-12-18T16:17:50;59.63;;;24.63;;
10399;SDS011;10031;51.180;17.168;2022-12-18T16:20:18;50.60;;;20.30;;
10399;SDS011;10031;51.180;17.168;2022-12-18T16:22:46;53.33;;;19.63;;
10399;SDS011;10031;51.180;17.168;2022-12-18T16:25:20;57.93;;;20.90;;
10399;SDS011;10031;51.180;17.168;2022-12-18T16:27:52;50.97;;;20.43;;
10399;SDS011;10031;51.180;17.168;2022-12-18T16:30:23;62.67;;;23.67;;
10399;SDS011;10031;51.180;17.168;2022-12-18T16:32:52;56.53;;;21.93;;
10399;SDS011;10031;51.180;17.168;2022-12-18T16:35:19;65.30;;;26.07;;
10399;SDS011;10031;51.180;17.168;2022-12-18T16:37:45;54.33;;;19.33;;
10399;SDS011;10031;51.180;17.168;2022-12-18T16:40:15;73.63;;;25.87;;
10399;SDS011;10031;51.180;17.168;2022-12-18T16:42:42;50.47;;;20.50;;
10399;SDS011;10031;51.180;17.168;2022-12-18T16:45:11;75.87;;;26.87;;